Etusivu
METAR-TAF:

METAR-TAF

Lentoasemat :

Chișinăun kansainvälinen lentoasema

Chișinău, Moldova

Leveyspiiri: 46-55-40N, Pituuspiiri: 028-55-51E, korkeus merenpinnasta: 122 m

Tämänhetkinen sää

Tämä raportti tehtiin 39 minuuttia sitten, kello 05.00 UTC
Tuuli 3 kn lännestä/lounaasta
Lämpötila 0°C
Kosteus 51%
Ilmanpaine 1018 hPa
Näkyvyys 10 km tai enemmän
ei pilviä alle 1500 m:ssä eikä cumulonimbus-pilviä

METAR: LUKK 020500Z 24003KT CAVOK M00/M09 Q1018 R26/D NOSIG

Aika: 08:39 (05:39 UTC)

Sääennuste

Tämä raportti tehtiin 6 tuntia ja 19 minuuttia sitten, kello 23.20 UTC
Ennuste voimassa 02. päivästä klo 00 UTC - 02. päivään klo 24 UTC
Tuuli 6 kn etelästä/lounaasta
Näkyvyys 10 km tai enemmän
ei pilviä alle 1500 m:ssä eikä cumulonimbus-pilviä

TAF: LUKK 012320Z 0200/0224 21006KT CAVOK

Säähavainnot ja -ennusteet yli 4000 lentoasemalta (METAR- ja TAF-raportit).

Käytössä olevat sääasemat on merkitty karttaan keltaisilla ja punaisilla pisteillä.

Aseta hiiri pisteen päälle nähdäksesi sääaseman nimen.

Klikkaa sitten nähdäksesi säähavainnot ja -ennusteet.

Kartan vaihtaminen: klikkaa mustalla rastilla varustettuja vihreitä pisteitä, niin voit zoomata sisään; viivalla varustettua vihreää pistettä, niin voit zoomata ulos tai vihreitä nuolia, niin pääset viereisille kartoille.


METAR-TAF: